ADDS TAF Board (Experimental) INFO

IDs: Format: Expanded Condensed

Updated at: 1349 UTC 30 Sep 2014

KJFK - New York/Kennedy Int, NY, US

Issued at 1124 UTC 30 Sep 2014
Time1251Z30/14Z30/15Z30/16Z30/17Z30/18Z30/19Z30/20Z30/21Z30/22Z30/23Z01/00Z01/01Z01/02Z
TypeOBSPRVLPRVLPRVLPRVLPRVLPRVLPRVLPRVLPRVLPRVLPRVLPRVLPRVL
VIS10>6>6>6>6>6>6>6>6>6>6>6>6>6
CIG7510252525808080808080808012
CoverBKNBKNBKNBKNBKNBKNBKNBKNBKNBKNBKNBKNBKNOVC
FltCat--MVFRMVFRMVFRMVFRVFRVFRVFRVFRVFRVFRVFRVFRMVFR
WX----------------------------
WDirVRB100110110110909090909090909050
WSpd086666666666610
WGst----------------------------
R04/22
XWndVRB-7-6-6-6-5-5-5-5-5-5-5-5-3
HWndVRB3111333333339
R13/31
XWndVRB3111333333339
HWndVRB7666555555553
Raw TAF
KJFK 301124Z 3012/0118 VRB03KT P6SM FEW008 OVC070
  FM301300 10008KT P6SM BKN010
  FM301500 11006KT P6SM BKN025
  FM301730 09006KT P6SM SCT030 BKN080
  FM010200 05010KT P6SM OVC012
  FM011300 03012G18KT P6SM OVC012


Raw METAR
KJFK 301251Z 00000KT 10SM FEW012 SCT043 BKN075 BKN140 21/15 A2997 RMK AO2 SLP149 VCSH NE AND E T02060150

TAF Board Legend

Hazard VFR MVFR IFR LIFR
Visibility (sm) >5 3≤X≤5 1≤X<3 <1
Ceiling (100 ft) >30 10≤X≤30 5≤X<10 <5
Wind Speed (kt) <10 10≤X<20 20≤X<30 ≥30
Wind Gust (kt) <15 15≤X<25 25≤X<35 ≥35
Weather No Wx Reported VCTS,-TS,-FZRA TS,FZRA +TS,+FZRA


Page loaded:  13:49 UTC  |   06:49 AM Pacific  |   07:49 AM Mountain  |   08:49 AM Central  |   09:49 AM Eastern

 

ADVISORIES

FORECASTS

FORECASTS

OBSERVATIONS

USER TOOLS

ABOUT US